sensor_id;sensor_type;location;lat;lon;timestamp;temperature;humidity
68439;SHT31;55421;51.600;5.718;2023-04-01T00:01:26;10.95;85.10
68439;SHT31;55421;51.600;5.718;2023-04-01T00:03:52;10.94;85.12
68439;SHT31;55421;51.600;5.718;2023-04-01T00:06:20;10.93;85.19
68439;SHT31;55421;51.600;5.718;2023-04-01T00:08:46;10.93;85.21
68439;SHT31;55421;51.600;5.718;2023-04-01T00:11:13;10.92;85.28
68439;SHT31;55421;51.600;5.718;2023-04-01T00:13:42;10.90;85.31
68439;SHT31;55421;51.600;5.718;2023-04-01T00:16:09;10.89;85.40
68439;SHT31;55421;51.600;5.718;2023-04-01T00:18:36;10.88;85.42
68439;SHT31;55421;51.600;5.718;2023-04-01T00:21:06;10.87;85.50
68439;SHT31;55421;51.600;5.718;2023-04-01T00:23:32;10.86;85.59
68439;SHT31;55421;51.600;5.718;2023-04-01T00:26:00;10.84;85.67
68439;SHT31;55421;51.600;5.718;2023-04-01T00:28:28;10.82;85.68
68439;SHT31;55421;51.600;5.718;2023-04-01T00:30:55;10.82;85.71
68439;SHT31;55421;51.600;5.718;2023-04-01T00:33:22;10.82;85.76
68439;SHT31;55421;51.600;5.718;2023-04-01T00:35:48;10.81;85.77
68439;SHT31;55421;51.600;5.718;2023-04-01T00:38:15;10.81;85.80
68439;SHT31;55421;51.600;5.718;2023-04-01T00:40:44;10.80;85.80
68439;SHT31;55421;51.600;5.718;2023-04-01T00:43:14;10.80;85.85
68439;SHT31;55421;51.600;5.718;2023-04-01T00:45:49;10.81;85.89
68439;SHT31;55421;51.600;5.718;2023-04-01T00:48:17;10.79;85.96
68439;SHT31;55421;51.600;5.718;2023-04-01T00:50:50;10.79;86.00
68439;SHT31;55421;51.600;5.718;2023-04-01T00:53:22;10.77;86.06
68439;SHT31;55421;51.600;5.718;2023-04-01T00:55:54;10.77;86.07
68439;SHT31;55421;51.600;5.718;2023-04-01T00:58:29;10.77;86.10
68439;SHT31;55421;51.600;5.718;2023-04-01T01:01:03;10.76;86.10
68439;SHT31;55421;51.600;5.718;2023-04-01T01:03:32;10.77;86.10
68439;SHT31;55421;51.600;5.718;2023-04-01T01:06:02;10.77;86.10
68439;SHT31;55421;51.600;5.718;2023-04-01T01:11:54;10.76;86.12
68439;SHT31;55421;51.600;5.718;2023-04-01T01:27:10;10.74;86.30
68439;SHT31;55421;51.600;5.718;2023-04-01T01:32:59;10.73;86.31
68439;SHT31;55421;51.600;5.718;2023-04-01T01:35:43;10.72;86.37
68439;SHT31;55421;51.600;5.718;2023-04-01T01:38:21;10.72;86.43
68439;SHT31;55421;51.600;5.718;2023-04-01T01:40:52;10.70;86.48
68439;SHT31;55421;51.600;5.718;2023-04-01T01:43:25;10.70;86.50
68439;SHT31;55421;51.600;5.718;2023-04-01T01:46:01;10.70;86.55
68439;SHT31;55421;51.600;5.718;2023-04-01T01:48:35;10.70;86.59
68439;SHT31;55421;51.600;5.718;2023-04-01T01:51:06;10.71;86.59
68439;SHT31;55421;51.600;5.718;2023-04-01T01:53:34;10.71;86.60
68439;SHT31;55421;51.600;5.718;2023-04-01T01:56:02;10.70;86.60
68439;SHT31;55421;51.600;5.718;2023-04-01T01:58:31;10.70;86.63
68439;SHT31;55421;51.600;5.718;2023-04-01T02:01:07;10.71;86.64
68439;SHT31;55421;51.600;5.718;2023-04-01T02:03:50;10.70;86.69
68439;SHT31;55421;51.600;5.718;2023-04-01T02:06:20;10.69;86.70
68439;SHT31;55421;51.600;5.718;2023-04-01T02:11:30;10.65;86.82
68439;SHT31;55421;51.600;5.718;2023-04-01T02:14:14;10.65;86.90
68439;SHT31;55421;51.600;5.718;2023-04-01T02:16:58;10.64;86.97
68439;SHT31;55421;51.600;5.718;2023-04-01T02:19:30;10.64;87.00
68439;SHT31;55421;51.600;5.718;2023-04-01T02:22:05;10.63;87.04
68439;SHT31;55421;51.600;5.718;2023-04-01T02:24:39;10.62;87.04
68439;SHT31;55421;51.600;5.718;2023-04-01T02:27:09;10.62;87.09
68439;SHT31;55421;51.600;5.718;2023-04-01T02:29:37;10.62;87.10
68439;SHT31;55421;51.600;5.718;2023-04-01T02:32:04;10.61;87.05
68439;SHT31;55421;51.600;5.718;2023-04-01T02:34:33;10.61;87.04
68439;SHT31;55421;51.600;5.718;2023-04-01T02:37:00;10.61;87.04
68439;SHT31;55421;51.600;5.718;2023-04-01T02:39:27;10.60;87.00
68439;SHT31;55421;51.600;5.718;2023-04-01T02:41:54;10.59;86.95
68439;SHT31;55421;51.600;5.718;2023-04-01T02:44:21;10.56;86.92
68439;SHT31;55421;51.600;5.718;2023-04-01T02:46:48;10.56;86.96
68439;SHT31;55421;51.600;5.718;2023-04-01T02:49:14;10.55;86.99
68439;SHT31;55421;51.600;5.718;2023-04-01T02:51:40;10.54;87.00
68439;SHT31;55421;51.600;5.718;2023-04-01T02:54:07;10.52;87.00
68439;SHT31;55421;51.600;5.718;2023-04-01T02:56:33;10.52;87.09
68439;SHT31;55421;51.600;5.718;2023-04-01T02:59:00;10.52;87.10
68439;SHT31;55421;51.600;5.718;2023-04-01T03:01:26;10.52;87.10
68439;SHT31;55421;51.600;5.718;2023-04-01T03:03:53;10.50;87.09
68439;SHT31;55421;51.600;5.718;2023-04-01T03:06:19;10.51;87.10
68439;SHT31;55421;51.600;5.718;2023-04-01T03:08:46;10.51;87.10
68439;SHT31;55421;51.600;5.718;2023-04-01T03:11:13;10.50;87.08
68439;SHT31;55421;51.600;5.718;2023-04-01T03:13:39;10.48;87.10
68439;SHT31;55421;51.600;5.718;2023-04-01T03:16:06;10.46;87.20
68439;SHT31;55421;51.600;5.718;2023-04-01T03:18:33;10.44;87.20
68439;SHT31;55421;51.600;5.718;2023-04-01T03:21:19;10.44;87.26
68439;SHT31;55421;51.600;5.718;2023-04-01T03:23:49;10.41;87.30
68439;SHT31;55421;51.600;5.718;2023-04-01T03:26:16;10.40;87.36
68439;SHT31;55421;51.600;5.718;2023-04-01T03:28:44;10.39;87.40
68439;SHT31;55421;51.600;5.718;2023-04-01T03:31:10;10.40;87.50
68439;SHT31;55421;51.600;5.718;2023-04-01T03:33:37;10.38;87.50
68439;SHT31;55421;51.600;5.718;2023-04-01T03:36:04;10.38;87.53
68439;SHT31;55421;51.600;5.718;2023-04-01T03:38:33;10.37;87.55
68439;SHT31;55421;51.600;5.718;2023-04-01T03:41:01;10.35;87.55
68439;SHT31;55421;51.600;5.718;2023-04-01T03:43:28;10.34;87.60
68439;SHT31;55421;51.600;5.718;2023-04-01T03:45:55;10.33;87.69
68439;SHT31;55421;51.600;5.718;2023-04-01T03:48:24;10.32;87.69
68439;SHT31;55421;51.600;5.718;2023-04-01T03:50:51;10.32;87.70
68439;SHT31;55421;51.600;5.718;2023-04-01T03:53:18;10.31;87.75
68439;SHT31;55421;51.600;5.718;2023-04-01T03:55:45;10.31;87.76
68439;SHT31;55421;51.600;5.718;2023-04-01T03:58:13;10.30;87.81
68439;SHT31;55421;51.600;5.718;2023-04-01T04:00:39;10.30;87.80
68439;SHT31;55421;51.600;5.718;2023-04-01T04:03:06;10.30;87.82
68439;SHT31;55421;51.600;5.718;2023-04-01T04:05:33;10.29;87.88
68439;SHT31;55421;51.600;5.718;2023-04-01T04:07:59;10.28;87.92
68439;SHT31;55421;51.600;5.718;2023-04-01T04:10:26;10.26;87.93
68439;SHT31;55421;51.600;5.718;2023-04-01T04:12:55;10.26;87.91
68439;SHT31;55421;51.600;5.718;2023-04-01T04:15:22;10.24;87.95
68439;SHT31;55421;51.600;5.718;2023-04-01T04:17:49;10.24;88.00
68439;SHT31;55421;51.600;5.718;2023-04-01T04:20:15;10.24;87.99
68439;SHT31;55421;51.600;5.718;2023-04-01T04:22:42;10.23;87.99
68439;SHT31;55421;51.600;5.718;2023-04-01T04:25:08;10.23;87.97
68439;SHT31;55421;51.600;5.718;2023-04-01T04:27:35;10.22;88.00
68439;SHT31;55421;51.600;5.718;2023-04-01T04:30:02;10.21;87.99
68439;SHT31;55421;51.600;5.718;2023-04-01T04:32:31;10.21;88.00
68439;SHT31;55421;51.600;5.718;2023-04-01T04:34:58;10.20;88.01
68439;SHT31;55421;51.600;5.718;2023-04-01T04:37:24;10.19;88.01
68439;SHT31;55421;51.600;5.718;2023-04-01T04:39:51;10.18;88.02
68439;SHT31;55421;51.600;5.718;2023-04-01T04:42:18;10.18;88.05
68439;SHT31;55421;51.600;5.718;2023-04-01T04:44:45;10.17;88.10
68439;SHT31;55421;51.600;5.718;2023-04-01T04:47:11;10.16;88.10
68439;SHT31;55421;51.600;5.718;2023-04-01T04:49:38;10.17;88.11
68439;SHT31;55421;51.600;5.718;2023-04-01T04:52:04;10.15;88.11
68439;SHT31;55421;51.600;5.718;2023-04-01T04:54:31;10.15;88.18
68439;SHT31;55421;51.600;5.718;2023-04-01T04:56:57;10.13;88.13
68439;SHT31;55421;51.600;5.718;2023-04-01T04:59:24;10.12;88.14
68439;SHT31;55421;51.600;5.718;2023-04-01T05:01:50;10.11;88.14
68439;SHT31;55421;51.600;5.718;2023-04-01T05:04:17;10.10;88.10
68439;SHT31;55421;51.600;5.718;2023-04-01T05:06:43;10.09;88.17
68439;SHT31;55421;51.600;5.718;2023-04-01T05:09:11;10.07;88.12
68439;SHT31;55421;51.600;5.718;2023-04-01T05:11:38;10.06;88.11
68439;SHT31;55421;51.600;5.718;2023-04-01T05:14:04;10.06;88.11
68439;SHT31;55421;51.600;5.718;2023-04-01T05:16:31;10.06;88.11
68439;SHT31;55421;51.600;5.718;2023-04-01T05:18:57;10.07;88.09
68439;SHT31;55421;51.600;5.718;2023-04-01T05:21:24;10.06;88.10
68439;SHT31;55421;51.600;5.718;2023-04-01T05:23:51;10.05;88.10
68439;SHT31;55421;51.600;5.718;2023-04-01T05:26:18;10.04;88.11
68439;SHT31;55421;51.600;5.718;2023-04-01T05:28:44;10.04;88.14
68439;SHT31;55421;51.600;5.718;2023-04-01T05:31:11;10.04;88.20
68439;SHT31;55421;51.600;5.718;2023-04-01T05:33:37;10.01;88.20
68439;SHT31;55421;51.600;5.718;2023-04-01T05:36:08;10.02;88.26
68439;SHT31;55421;51.600;5.718;2023-04-01T05:38:37;10.00;88.28
68439;SHT31;55421;51.600;5.718;2023-04-01T05:41:04;9.98;88.33
68439;SHT31;55421;51.600;5.718;2023-04-01T05:43:30;9.98;88.41
68439;SHT31;55421;51.600;5.718;2023-04-01T05:45:57;9.98;88.40
68439;SHT31;55421;51.600;5.718;2023-04-01T05:48:24;9.97;88.47
68439;SHT31;55421;51.600;5.718;2023-04-01T05:50:50;9.97;88.49
68439;SHT31;55421;51.600;5.718;2023-04-01T05:53:17;9.97;88.50
68439;SHT31;55421;51.600;5.718;2023-04-01T05:55:43;9.98;88.60
68439;SHT31;55421;51.600;5.718;2023-04-01T05:58:10;9.98;88.60
68439;SHT31;55421;51.600;5.718;2023-04-01T06:00:36;9.98;88.60
68439;SHT31;55421;51.600;5.718;2023-04-01T06:03:03;9.97;88.68
68439;SHT31;55421;51.600;5.718;2023-04-01T06:05:30;9.98;88.70
68439;SHT31;55421;51.600;5.718;2023-04-01T06:08:13;9.99;88.71
68439;SHT31;55421;51.600;5.718;2023-04-01T06:13:55;10.02;88.82
68439;SHT31;55421;51.600;5.718;2023-04-01T06:22:29;10.03;88.92
68439;SHT31;55421;51.600;5.718;2023-04-01T06:25:27;10.03;89.00
68439;SHT31;55421;51.600;5.718;2023-04-01T06:28:16;10.05;89.01
68439;SHT31;55421;51.600;5.718;2023-04-01T06:40:27;10.12;89.19
68439;SHT31;55421;51.600;5.718;2023-04-01T06:43:25;10.14;89.21
68439;SHT31;55421;51.600;5.718;2023-04-01T06:56:05;10.21;89.47
68439;SHT31;55421;51.600;5.718;2023-04-01T07:01:12;10.27;89.52
68439;SHT31;55421;51.600;5.718;2023-04-01T07:03:49;10.29;89.46
68439;SHT31;55421;51.600;5.718;2023-04-01T07:06:35;10.30;89.50
68439;SHT31;55421;51.600;5.718;2023-04-01T07:09:10;10.32;89.49
68439;SHT31;55421;51.600;5.718;2023-04-01T07:11:44;10.35;89.50
68439;SHT31;55421;51.600;5.718;2023-04-01T07:14:22;10.36;89.46
68439;SHT31;55421;51.600;5.718;2023-04-01T07:22:54;10.42;89.40
68439;SHT31;55421;51.600;5.718;2023-04-01T07:25:47;10.44;89.41
68439;SHT31;55421;51.600;5.718;2023-04-01T07:28:17;10.47;89.40
68439;SHT31;55421;51.600;5.718;2023-04-01T07:30:58;10.49;89.40
68439;SHT31;55421;51.600;5.718;2023-04-01T07:36:43;10.49;89.30
68439;SHT31;55421;51.600;5.718;2023-04-01T07:42:49;10.48;89.19
68439;SHT31;55421;51.600;5.718;2023-04-01T07:45:47;10.47;89.14
68439;SHT31;55421;51.600;5.718;2023-04-01T07:48:46;10.49;89.20
68439;SHT31;55421;51.600;5.718;2023-04-01T07:51:38;10.49;89.09
68439;SHT31;55421;51.600;5.718;2023-04-01T08:00:12;10.53;88.91
68439;SHT31;55421;51.600;5.718;2023-04-01T08:03:08;10.58;88.85
68439;SHT31;55421;51.600;5.718;2023-04-01T08:05:53;10.64;88.56
68439;SHT31;55421;51.600;5.718;2023-04-01T08:08:50;10.69;88.27
68439;SHT31;55421;51.600;5.718;2023-04-01T08:14:19;10.79;88.08
68439;SHT31;55421;51.600;5.718;2023-04-01T08:17:20;10.83;88.10
68439;SHT31;55421;51.600;5.718;2023-04-01T08:20:14;10.85;88.06
68439;SHT31;55421;51.600;5.718;2023-04-01T08:23:07;10.87;88.00
68439;SHT31;55421;51.600;5.718;2023-04-01T08:31:49;10.94;88.18
68439;SHT31;55421;51.600;5.718;2023-04-01T08:34:28;10.93;88.20
68439;SHT31;55421;51.600;5.718;2023-04-01T08:37:08;10.89;88.21
68439;SHT31;55421;51.600;5.718;2023-04-01T08:39:46;10.88;88.29
68439;SHT31;55421;51.600;5.718;2023-04-01T08:45:40;10.87;88.43
68439;SHT31;55421;51.600;5.718;2023-04-01T08:54:26;10.87;88.43
68439;SHT31;55421;51.600;5.718;2023-04-01T08:57:15;10.84;88.44
68439;SHT31;55421;51.600;5.718;2023-04-01T09:03:03;10.85;88.50
68439;SHT31;55421;51.600;5.718;2023-04-01T09:11:40;10.89;88.62
68439;SHT31;55421;51.600;5.718;2023-04-01T09:26:41;10.97;88.56
68439;SHT31;55421;51.600;5.718;2023-04-01T09:38:37;10.94;88.42
68439;SHT31;55421;51.600;5.718;2023-04-01T09:41:32;10.95;88.37
68439;SHT31;55421;51.600;5.718;2023-04-01T09:44:33;10.96;88.39
68439;SHT31;55421;51.600;5.718;2023-04-01T09:47:16;10.99;88.40
68439;SHT31;55421;51.600;5.718;2023-04-01T09:52:54;11.10;88.41
68439;SHT31;55421;51.600;5.718;2023-04-01T10:10:15;11.14;88.18
68439;SHT31;55421;51.600;5.718;2023-04-01T10:22:40;11.34;87.97
68439;SHT31;55421;51.600;5.718;2023-04-01T10:28:17;11.41;87.93
68439;SHT31;55421;51.600;5.718;2023-04-01T10:31:12;11.45;87.93
68439;SHT31;55421;51.600;5.718;2023-04-01T10:34:14;11.45;87.75
68439;SHT31;55421;51.600;5.718;2023-04-01T10:36:56;11.43;87.64
68439;SHT31;55421;51.600;5.718;2023-04-01T10:39:46;11.41;87.64
68439;SHT31;55421;51.600;5.718;2023-04-01T10:54:58;11.46;87.52
68439;SHT31;55421;51.600;5.718;2023-04-01T11:16:10;11.89;87.30
68439;SHT31;55421;51.600;5.718;2023-04-01T11:19:07;11.93;86.93
68439;SHT31;55421;51.600;5.718;2023-04-01T11:22:00;11.99;86.92
68439;SHT31;55421;51.600;5.718;2023-04-01T11:24:51;12.05;86.87
68439;SHT31;55421;51.600;5.718;2023-04-01T11:34:16;12.09;86.85
68439;SHT31;55421;51.600;5.718;2023-04-01T11:37:32;12.03;86.85
68439;SHT31;55421;51.600;5.718;2023-04-01T11:43:08;11.92;86.76
68439;SHT31;55421;51.600;5.718;2023-04-01T11:48:56;11.88;86.99
68439;SHT31;55421;51.600;5.718;2023-04-01T12:00:36;11.76;86.86
68439;SHT31;55421;51.600;5.718;2023-04-01T12:16:07;11.66;87.01
68439;SHT31;55421;51.600;5.718;2023-04-01T12:18:53;11.61;87.01
68439;SHT31;55421;51.600;5.718;2023-04-01T12:24:22;11.56;87.17
68439;SHT31;55421;51.600;5.718;2023-04-01T12:27:07;11.51;87.22
68439;SHT31;55421;51.600;5.718;2023-04-01T12:29:53;11.50;87.34
68439;SHT31;55421;51.600;5.718;2023-04-01T12:44:25;11.65;87.60
68439;SHT31;55421;51.600;5.718;2023-04-01T12:47:36;11.74;87.58
68439;SHT31;55421;51.600;5.718;2023-04-01T12:53:11;11.92;87.33
68439;SHT31;55421;51.600;5.718;2023-04-01T12:56:03;11.97;87.16
68439;SHT31;55421;51.600;5.718;2023-04-01T12:59:19;11.97;86.82
68439;SHT31;55421;51.600;5.718;2023-04-01T13:05:18;11.97;86.70
68439;SHT31;55421;51.600;5.718;2023-04-01T13:13:58;12.15;86.76
68439;SHT31;55421;51.600;5.718;2023-04-01T13:17:08;12.20;86.68
68439;SHT31;55421;51.600;5.718;2023-04-01T13:27:56;12.15;86.54
68439;SHT31;55421;51.600;5.718;2023-04-01T13:30:38;12.09;86.48
68439;SHT31;55421;51.600;5.718;2023-04-01T13:36:19;11.99;86.60
68439;SHT31;55421;51.600;5.718;2023-04-01T13:51:33;11.87;87.02
68439;SHT31;55421;51.600;5.718;2023-04-01T13:54:13;11.85;86.98
68439;SHT31;55421;51.600;5.718;2023-04-01T13:57:22;11.82;86.97
68439;SHT31;55421;51.600;5.718;2023-04-01T14:00:19;11.80;87.01
68439;SHT31;55421;51.600;5.718;2023-04-01T14:11:53;11.85;87.02
68439;SHT31;55421;51.600;5.718;2023-04-01T14:20:49;11.82;87.02
68439;SHT31;55421;51.600;5.718;2023-04-01T14:35:56;11.71;86.94
68439;SHT31;55421;51.600;5.718;2023-04-01T14:42:28;11.72;87.10
68439;SHT31;55421;51.600;5.718;2023-04-01T14:45:40;11.75;87.13
68439;SHT31;55421;51.600;5.718;2023-04-01T14:48:59;11.77;87.10
68439;SHT31;55421;51.600;5.718;2023-04-01T14:51:32;11.78;87.08
68439;SHT31;55421;51.600;5.718;2023-04-01T14:54:06;11.80;87.12
68439;SHT31;55421;51.600;5.718;2023-04-01T14:56:43;11.82;87.10
68439;SHT31;55421;51.600;5.718;2023-04-01T14:59:28;11.84;87.10
68439;SHT31;55421;51.600;5.718;2023-04-01T15:10:34;11.82;87.06
68439;SHT31;55421;51.600;5.718;2023-04-01T15:13:13;11.80;87.09
68439;SHT31;55421;51.600;5.718;2023-04-01T15:25:25;11.83;87.26
68439;SHT31;55421;51.600;5.718;2023-04-01T15:37:18;11.92;87.03
68439;SHT31;55421;51.600;5.718;2023-04-01T15:40:40;11.89;86.88
68439;SHT31;55421;51.600;5.718;2023-04-01T15:43:40;11.86;86.90
68439;SHT31;55421;51.600;5.718;2023-04-01T15:58:17;11.76;87.08
68439;SHT31;55421;51.600;5.718;2023-04-01T16:01:07;11.73;87.10
68439;SHT31;55421;51.600;5.718;2023-04-01T16:12:53;11.63;87.34
68439;SHT31;55421;51.600;5.718;2023-04-01T16:21:52;11.60;87.45
68439;SHT31;55421;51.600;5.718;2023-04-01T16:30:36;11.58;87.59
68439;SHT31;55421;51.600;5.718;2023-04-01T16:36:10;11.58;87.63
68439;SHT31;55421;51.600;5.718;2023-04-01T16:39:08;11.59;87.64
68439;SHT31;55421;51.600;5.718;2023-04-01T16:42:09;11.58;87.60
68439;SHT31;55421;51.600;5.718;2023-04-01T16:47:32;11.61;87.60
68439;SHT31;55421;51.600;5.718;2023-04-01T16:50:30;11.62;87.60
68439;SHT31;55421;51.600;5.718;2023-04-01T16:53:19;11.65;87.68
68439;SHT31;55421;51.600;5.718;2023-04-01T16:56:23;11.67;87.66
68439;SHT31;55421;51.600;5.718;2023-04-01T16:58:57;11.69;87.65
68439;SHT31;55421;51.600;5.718;2023-04-01T17:04:38;11.74;87.60
68439;SHT31;55421;51.600;5.718;2023-04-01T17:07:14;11.76;87.60
68439;SHT31;55421;51.600;5.718;2023-04-01T17:25:17;11.69;87.58
68439;SHT31;55421;51.600;5.718;2023-04-01T17:28:07;11.68;87.63
68439;SHT31;55421;51.600;5.718;2023-04-01T17:37:23;11.61;87.64
68439;SHT31;55421;51.600;5.718;2023-04-01T17:40:11;11.60;87.70
68439;SHT31;55421;51.600;5.718;2023-04-01T17:42:57;11.59;87.75
68439;SHT31;55421;51.600;5.718;2023-04-01T17:52:46;11.50;87.71
68439;SHT31;55421;51.600;5.718;2023-04-01T17:58:03;11.49;87.82
68439;SHT31;55421;51.600;5.718;2023-04-01T18:10:09;11.37;88.01
68439;SHT31;55421;51.600;5.718;2023-04-01T18:15:43;11.34;88.20
68439;SHT31;55421;51.600;5.718;2023-04-01T18:21:58;11.29;88.12
68439;SHT31;55421;51.600;5.718;2023-04-01T18:27:50;11.18;88.00
68439;SHT31;55421;51.600;5.718;2023-04-01T18:30:28;11.15;88.00
68439;SHT31;55421;51.600;5.718;2023-04-01T18:39:25;11.04;87.88
68439;SHT31;55421;51.600;5.718;2023-04-01T18:44:56;10.94;87.73
68439;SHT31;55421;51.600;5.718;2023-04-01T18:47:38;10.90;87.70
68439;SHT31;55421;51.600;5.718;2023-04-01T18:53:22;10.82;87.55
68439;SHT31;55421;51.600;5.718;2023-04-01T18:56:05;10.78;87.49
68439;SHT31;55421;51.600;5.718;2023-04-01T19:01:31;10.71;87.50
68439;SHT31;55421;51.600;5.718;2023-04-01T19:10:23;10.63;87.50
68439;SHT31;55421;51.600;5.718;2023-04-01T19:21:44;10.45;87.42
68439;SHT31;55421;51.600;5.718;2023-04-01T19:30:22;10.30;87.33
68439;SHT31;55421;51.600;5.718;2023-04-01T19:36:06;10.23;87.37
68439;SHT31;55421;51.600;5.718;2023-04-01T19:41:47;10.21;87.48
68439;SHT31;55421;51.600;5.718;2023-04-01T19:44:36;10.20;87.49
68439;SHT31;55421;51.600;5.718;2023-04-01T19:52:48;10.13;87.50
68439;SHT31;55421;51.600;5.718;2023-04-01T20:01:17;10.05;87.45
68439;SHT31;55421;51.600;5.718;2023-04-01T20:10:14;10.02;87.48
68439;SHT31;55421;51.600;5.718;2023-04-01T20:13:04;10.01;87.58
68439;SHT31;55421;51.600;5.718;2023-04-01T20:15:47;9.99;87.63
68439;SHT31;55421;51.600;5.718;2023-04-01T20:18:39;9.98;87.72
68439;SHT31;55421;51.600;5.718;2023-04-01T20:24:17;9.89;87.78
68439;SHT31;55421;51.600;5.718;2023-04-01T20:27:08;9.85;87.77
68439;SHT31;55421;51.600;5.718;2023-04-01T20:45:37;9.66;87.52
68439;SHT31;55421;51.600;5.718;2023-04-01T20:54:24;9.64;87.43
68439;SHT31;55421;51.600;5.718;2023-04-01T21:15:39;9.45;87.40
68439;SHT31;55421;51.600;5.718;2023-04-01T21:21:20;9.39;87.35
68439;SHT31;55421;51.600;5.718;2023-04-01T21:29:55;9.31;87.26
68439;SHT31;55421;51.600;5.718;2023-04-01T21:33:00;9.24;87.29
68439;SHT31;55421;51.600;5.718;2023-04-01T21:44:52;9.11;87.47
68439;SHT31;55421;51.600;5.718;2023-04-01T21:56:35;9.05;87.25
68439;SHT31;55421;51.600;5.718;2023-04-01T22:02:34;8.95;87.23
68439;SHT31;55421;51.600;5.718;2023-04-01T22:05:36;8.94;87.24
68439;SHT31;55421;51.600;5.718;2023-04-01T22:13:48;8.85;86.97
68439;SHT31;55421;51.600;5.718;2023-04-01T22:16:21;8.82;86.90
68439;SHT31;55421;51.600;5.718;2023-04-01T22:19:19;8.81;86.81
68439;SHT31;55421;51.600;5.718;2023-04-01T22:22:01;8.80;86.80
68439;SHT31;55421;51.600;5.718;2023-04-01T22:27:49;8.78;86.33
68439;SHT31;55421;51.600;5.718;2023-04-01T22:30:29;8.77;86.30
68439;SHT31;55421;51.600;5.718;2023-04-01T22:33:14;8.76;86.30
68439;SHT31;55421;51.600;5.718;2023-04-01T22:47:45;8.77;86.60
68439;SHT31;55421;51.600;5.718;2023-04-01T22:50:44;8.73;86.47
68439;SHT31;55421;51.600;5.718;2023-04-01T22:53:29;8.67;86.39
68439;SHT31;55421;51.600;5.718;2023-04-01T22:56:19;8.64;86.49
68439;SHT31;55421;51.600;5.718;2023-04-01T22:59:19;8.60;86.54
68439;SHT31;55421;51.600;5.718;2023-04-01T23:02:03;8.57;86.62
68439;SHT31;55421;51.600;5.718;2023-04-01T23:04:55;8.54;86.68
68439;SHT31;55421;51.600;5.718;2023-04-01T23:10:17;8.49;86.62
68439;SHT31;55421;51.600;5.718;2023-04-01T23:12:54;8.48;86.69
68439;SHT31;55421;51.600;5.718;2023-04-01T23:15:27;8.46;86.71
68439;SHT31;55421;51.600;5.718;2023-04-01T23:23:41;8.35;86.69
68439;SHT31;55421;51.600;5.718;2023-04-01T23:26:55;8.33;86.75
68439;SHT31;55421;51.600;5.718;2023-04-01T23:29:26;8.32;86.79
68439;SHT31;55421;51.600;5.718;2023-04-01T23:31:58;8.29;86.73
68439;SHT31;55421;51.600;5.718;2023-04-01T23:34:34;8.26;86.70
68439;SHT31;55421;51.600;5.718;2023-04-01T23:37:03;8.23;86.70
68439;SHT31;55421;51.600;5.718;2023-04-01T23:39:40;8.22;86.72
68439;SHT31;55421;51.600;5.718;2023-04-01T23:42:20;8.20;86.79
68439;SHT31;55421;51.600;5.718;2023-04-01T23:45:18;8.19;86.80
68439;SHT31;55421;51.600;5.718;2023-04-01T23:47:46;8.17;86.76
68439;SHT31;55421;51.600;5.718;2023-04-01T23:50:17;8.15;86.69
68439;SHT31;55421;51.600;5.718;2023-04-01T23:52:52;8.14;86.67
68439;SHT31;55421;51.600;5.718;2023-04-01T23:55:27;8.14;86.73
